Terminal Aerodrome Forecast
Issued by NWS

Home | Current Version | Previous Version | Text Only | Print | Product List | Glossary On
Versions: 1 2 3 4 5 6 7 8 9 10 11 12 13 14 15 16 17 18 19 20 21 22 23 24 25 26 27 28 29 30 31 32 33 34 35 36 37 38 39 40
000
FTUS45 KBOU 281738
TAFBJC
TAF
KBJC 281738Z 2818/2918 13006KT P6SM FEW070 FEW150
      TEMPO 2819/2820 VRB15G30KT -TSRA SCT070CB BKN120
     FM282000 12007KT P6SM SCT070 BKN120
     FM290200 26009KT P6SM FEW080 SCT150
     FM291500 VRB05KT P6SM SCT080 SCT160=

USA.gov is the U.S. government's official web portal to all federal, state and local government web resources and services.